Time;durP1;ratioP1;P1;durP2;ratioP2;P2;SDS_P1;SDS_P2;PMS_P1;PMS_P2;Temp;Humidity;BMP_temperature;BMP_pressure;BME280_temperature;BME280_humidity;BME280_pressure;Samples;Min_cycle;Max_cycle;Signal;HPM_P1;HPM_P2
2022/09/13 00:00:33;;;;;;;8.60;6.50;;;;;;;7.16;87.99;100362.28;84580;1331;24360;-77
2022/09/13 00:03:04;;;;;;;7.10;5.50;;;;;;;7.06;88.01;100365.48;84641;1333;22641;-77
2022/09/13 00:05:14;;;;;;;7.70;5.70;;;;;;;7.01;87.93;100367.32;84682;1333;25658;-71
2022/09/13 00:07:23;;;;;;;6.50;5.30;;;;;;;6.97;88.27;100368.09;84602;1329;22627;-74
2022/09/13 00:09:32;;;;;;;8.60;5.70;;;;;;;6.94;88.04;100367.30;84621;1329;24239;-77
2022/09/13 00:11:44;;;;;;;6.10;5.10;;;;;;;6.93;88.20;100367.52;84538;1333;22593;-76
2022/09/13 00:13:55;;;;;;;6.30;5.60;;;;;;;6.90;88.28;100368.78;84603;1331;22822;-75
2022/09/13 00:16:04;;;;;;;10.20;6.10;;;;;;;6.87;88.16;100371.81;84631;1332;22584;-75
2022/09/13 00:18:13;;;;;;;11.40;5.40;;;;;;;6.86;88.52;100369.75;84614;1333;22720;-75
2022/09/13 00:20:23;;;;;;;8.30;6.70;;;;;;;6.86;88.66;100365.42;84539;1335;23884;-75
2022/09/13 00:22:34;;;;;;;6.00;5.50;;;;;;;6.82;88.51;100364.45;84571;1331;25444;-76
2022/09/13 00:24:47;;;;;;;11.00;6.70;;;;;;;6.75;88.10;100366.70;84584;1333;22609;-76
2022/09/13 00:26:56;;;;;;;7.40;6.60;;;;;;;6.69;88.23;100367.87;84624;1333;23894;-76
2022/09/13 00:29:08;;;;;;;8.40;6.70;;;;;;;6.66;88.46;100365.33;84616;1333;22990;-75
2022/09/13 00:31:22;;;;;;;9.60;6.20;;;;;;;6.64;88.46;100364.36;84634;1330;22587;-73
2022/09/13 00:33:34;;;;;;;11.00;7.60;;;;;;;6.61;88.54;100364.92;84627;1332;25352;-74
2022/09/13 00:35:42;;;;;;;8.00;6.50;;;;;;;6.61;88.56;100369.27;84612;1330;26642;-76
2022/09/13 00:37:53;;;;;;;8.40;6.00;;;;;;;6.62;88.86;100368.55;84611;1329;24249;-75
2022/09/13 00:40:05;;;;;;;7.30;6.00;;;;;;;6.62;89.09;100366.30;84669;1329;22618;-75
2022/09/13 00:42:18;;;;;;;7.70;5.30;;;;;;;6.61;88.87;100367.36;84620;1333;22606;-75
2022/09/13 00:45:01;;;;;;;8.00;6.10;;;;;;;6.55;88.30;100364.54;84646;1333;22638;-76
2022/09/13 00:47:10;;;;;;;8.90;5.60;;;;;;;6.47;88.22;100361.76;84556;1334;22734;-76
2022/09/13 00:49:21;;;;;;;6.20;4.30;;;;;;;6.43;88.37;100362.71;84635;1332;22628;-75
2022/09/13 00:51:32;;;;;;;8.40;5.30;;;;;;;6.38;88.46;100360.90;84621;1330;22655;-75
2022/09/13 00:53:49;;;;;;;9.50;5.20;;;;;;;6.34;88.36;100362.38;84649;1331;22607;-77
2022/09/13 00:56:02;;;;;;;6.90;5.10;;;;;;;6.30;88.24;100361.95;84572;1333;22860;-77
2022/09/13 00:58:16;;;;;;;7.10;5.40;;;;;;;6.29;88.55;100363.02;84571;1333;26793;-77
2022/09/13 01:00:26;;;;;;;6.00;5.40;;;;;;;6.27;88.80;100360.63;84642;1330;22806;-76
2022/09/13 01:02:35;;;;;;;7.50;5.50;;;;;;;6.26;88.54;100364.13;84641;1330;22809;-77
2022/09/13 01:04:44;;;;;;;6.30;5.00;;;;;;;6.21;88.68;100359.54;84540;1335;22603;-76
2022/09/13 01:06:54;;;;;;;7.40;5.40;;;;;;;6.16;88.18;100361.72;84621;1330;25259;-75
2022/09/13 01:09:05;;;;;;;6.70;5.00;;;;;;;6.11;88.39;100361.13;84660;1329;25320;-75
2022/09/13 01:11:26;;;;;;;8.70;6.50;;;;;;;6.09;88.69;100360.81;84636;1329;22682;-74
2022/09/13 01:13:37;;;;;;;11.50;5.40;;;;;;;6.08;88.87;100360.13;84642;1330;24304;-75
2022/09/13 01:15:46;;;;;;;10.90;6.70;;;;;;;6.08;88.94;100356.68;84622;1330;22799;-75
2022/09/13 01:17:56;;;;;;;18.50;6.40;;;;;;;6.07;89.08;100355.49;84561;1334;22688;-75
2022/09/13 01:20:06;;;;;;;12.20;6.70;;;;;;;6.05;89.31;100354.31;84589;1330;22587;-74
2022/09/13 01:23:04;;;;;;;15.10;6.20;;;;;;;6.07;89.69;100353.59;84613;1331;22729;-75
2022/09/13 01:25:48;;;;;;;15.40;9.30;;;;;;;6.11;90.06;100355.05;84615;1331;25314;-72
2022/09/13 01:28:19;;;;;;;16.60;8.60;;;;;;;6.16;90.81;100353.40;84645;1329;22673;-75
2022/09/13 01:30:30;;;;;;;17.90;7.30;;;;;;;6.18;90.43;100355.61;84581;1331;24221;-75
2022/09/13 01:32:58;;;;;;;13.00;7.40;;;;;;;6.18;90.41;100353.17;84625;1333;23897;-75
2022/09/13 01:35:15;;;;;;;13.90;7.40;;;;;;;6.16;90.23;100350.98;84620;1329;22620;-73
2022/09/13 01:37:36;;;;;;;18.30;7.20;;;;;;;6.16;90.33;100350.61;84575;1333;22719;-76
2022/09/13 01:40:01;;;;;;;10.00;7.10;;;;;;;6.15;90.34;100348.22;83883;1333;1003122;-74
2022/09/13 01:42:20;;;;;;;14.00;6.90;;;;;;;6.16;90.60;100347.34;84633;1327;22737;-74
2022/09/13 01:44:45;;;;;;;10.10;7.30;;;;;;;6.15;90.38;100345.45;84573;1332;24374;-77
2022/09/13 01:47:00;;;;;;;10.00;6.80;;;;;;;6.15;90.50;100347.54;84627;1330;22776;-77
2022/09/13 01:49:17;;;;;;;16.80;7.90;;;;;;;6.12;90.92;100343.60;84594;1330;22592;-75
2022/09/13 01:51:46;;;;;;;8.60;6.30;;;;;;;6.12;90.76;100343.95;84555;1330;22588;-75
2022/09/13 01:54:02;;;;;;;17.00;7.40;;;;;;;6.09;90.62;100341.42;84580;1331;22584;-77
2022/09/13 01:56:16;;;;;;;16.10;7.60;;;;;;;6.07;90.79;100338.33;84637;1331;24261;-78
2022/09/13 01:58:31;;;;;;;14.40;7.60;;;;;;;6.06;91.11;100338.89;84624;1329;22699;-74
2022/09/13 02:00:42;;;;;;;18.00;6.60;;;;;;;6.04;91.02;100335.29;84561;1330;22804;-76
2022/09/13 02:02:56;;;;;;;32.10;8.60;;;;;;;6.03;91.22;100335.13;84625;1330;22696;-76
2022/09/13 02:05:07;;;;;;;20.10;9.10;;;;;;;6.02;91.29;100336.02;84630;1332;22650;-74
2022/09/13 02:07:19;;;;;;;19.00;7.80;;;;;;;6.01;91.17;100329.97;84652;1333;22590;-74
2022/09/13 02:09:29;;;;;;;16.10;8.10;;;;;;;6.00;90.94;100334.66;84638;1330;22603;-74
2022/09/13 02:11:38;;;;;;;17.80;7.80;;;;;;;6.00;91.35;100330.68;84562;1330;22624;-75
2022/09/13 02:13:53;;;;;;;20.40;8.00;;;;;;;5.99;91.23;100327.76;84638;1330;24632;-77
2022/09/13 02:16:07;;;;;;;21.80;8.20;;;;;;;5.98;91.49;100326.73;84636;1330;24369;-77
2022/09/13 02:18:23;;;;;;;14.90;8.10;;;;;;;5.98;91.59;100326.77;84632;1330;22634;-77
2022/09/13 02:20:36;;;;;;;13.10;8.00;;;;;;;5.98;91.78;100325.55;84644;1329;22860;-74
2022/09/13 02:22:52;;;;;;;19.90;8.70;;;;;;;5.95;91.49;100322.82;84638;1333;22759;-74
2022/09/13 02:25:05;;;;;;;8.90;8.00;;;;;;;5.90;91.42;100320.13;84647;1330;24247;-75
2022/09/13 02:27:18;;;;;;;12.80;7.30;;;;;;;5.87;91.37;100317.92;84633;1331;22727;-75
2022/09/13 02:29:28;;;;;;;11.90;7.40;;;;;;;5.85;91.51;100316.92;84634;1330;25450;-77
2022/09/13 02:31:39;;;;;;;;;;;;;;;5.82;91.36;100314.92;84591;1333;22567;-77
2022/09/13 02:33:49;;;;;;;;;;;;;;;5.77;91.70;100315.01;84602;1330;22599;-77
2022/09/13 02:36:02;;;;;;;17.60;8.20;;;;;;;5.74;91.70;100311.09;84628;1333;25457;-77
2022/09/13 02:38:15;;;;;;;22.30;8.10;;;;;;;5.73;91.65;100313.70;84598;1333;22680;-77
2022/09/13 02:40:28;;;;;;;21.60;8.70;;;;;;;5.73;91.87;100314.23;84585;1333;22718;-75
2022/09/13 02:42:42;;;;;;;20.40;7.60;;;;;;;5.72;92.06;100311.14;84650;1333;22616;-75
2022/09/13 02:45:00;;;;;;;13.50;8.40;;;;;;;5.73;92.06;100313.17;84662;1329;24235;-77
2022/09/13 02:47:25;;;;;;;14.50;9.00;;;;;;;5.74;92.22;100310.56;84648;1330;25282;-76
2022/09/13 02:49:38;;;;;;;10.40;7.60;;;;;;;5.76;92.60;100309.14;84638;1329;22762;-74
2022/09/13 02:51:52;;;;;;;13.80;8.20;;;;;;;5.78;92.39;100308.60;84640;1326;25238;-74
2022/09/13 02:54:10;;;;;;;20.00;8.10;;;;;;;5.77;92.21;100305.67;84647;1330;22595;-76
2022/09/13 02:56:24;;;;;;;14.10;8.10;;;;;;;5.76;92.52;100304.63;84602;1330;22590;-77
2022/09/13 02:58:40;;;;;;;12.10;7.50;;;;;;;5.78;92.33;100301.48;84590;1327;22632;-76
2022/09/13 03:00:52;;;;;;;14.80;8.00;;;;;;;5.81;92.69;100297.79;84628;1330;25298;-76
2022/09/13 03:03:03;;;;;;;10.80;8.40;;;;;;;5.80;92.29;100295.20;84648;1330;26053;-77
2022/09/13 03:05:12;;;;;;;11.50;7.90;;;;;;;5.82;92.66;100300.20;84643;1330;23185;-73
2022/09/13 03:07:21;;;;;;;22.40;8.60;;;;;;;5.84;92.59;100298.41;84636;1333;22639;-75
2022/09/13 03:09:35;;;;;;;25.10;8.70;;;;;;;5.84;92.44;100297.22;84663;1329;22584;-76
2022/09/13 03:12:05;;;;;;;16.00;8.40;;;;;;;5.82;92.35;100294.15;84519;1332;22597;-77
2022/09/13 03:14:23;;;;;;;12.30;8.50;;;;;;;5.79;92.23;100290.20;84599;1331;23938;-77
2022/09/13 03:16:48;;;;;;;15.50;8.50;;;;;;;5.79;92.58;100287.96;84643;1330;22743;-77
2022/09/13 03:19:15;;;;;;;13.00;8.00;;;;;;;5.80;92.75;100284.47;84636;1326;22748;-77
2022/09/13 03:21:49;;;;;;;20.50;8.40;;;;;;;5.82;92.73;100286.17;84555;1330;22597;-77
2022/09/13 03:24:05;;;;;;;23.00;8.40;;;;;;;5.84;92.65;100283.53;84655;1330;22586;-75
2022/09/13 03:26:41;;;;;;;14.00;7.70;;;;;;;5.86;93.30;100280.55;84618;1332;22846;-76
2022/09/13 03:29:00;;;;;;;23.20;7.80;;;;;;;5.89;93.14;100278.05;84645;1329;25310;-74
2022/09/13 03:31:11;;;;;;;19.80;7.90;;;;;;;5.90;93.26;100276.65;84621;1329;22655;-73
2022/09/13 03:33:28;;;;;;;11.10;7.90;;;;;;;5.91;93.30;100277.88;84632;1321;24253;-75
2022/09/13 03:35:41;;;;;;;20.20;8.30;;;;;;;5.93;93.41;100277.15;84631;1329;24159;-75
2022/09/13 03:37:54;;;;;;;17.00;8.70;;;;;;;5.94;93.29;100274.87;84662;1325;23955;-74
2022/09/13 03:40:09;;;;;;;15.70;8.30;;;;;;;5.94;93.00;100273.82;84668;1330;24038;-71
2022/09/13 03:42:21;;;;;;;14.60;9.00;;;;;;;5.92;92.96;100275.26;84661;1330;22599;-75
2022/09/13 03:44:30;;;;;;;15.70;8.30;;;;;;;5.90;92.86;100270.09;84645;1333;22726;-76
2022/09/13 03:46:42;;;;;;;15.00;8.00;;;;;;;5.90;93.10;100271.64;84616;1329;24390;-76
2022/09/13 03:48:54;;;;;;;15.20;9.00;;;;;;;5.91;93.34;100270.42;84657;1329;22685;-75
2022/09/13 03:51:08;;;;;;;16.10;8.10;;;;;;;5.90;93.21;100266.26;84654;1329;22742;-74
2022/09/13 03:53:22;;;;;;;18.40;8.10;;;;;;;5.92;93.51;100263.66;84614;1325;22610;-74
2022/09/13 03:55:35;;;;;;;12.30;7.50;;;;;;;5.92;93.41;100262.63;84633;1329;23937;-76
2022/09/13 03:57:47;;;;;;;19.90;8.30;;;;;;;5.91;93.42;100263.84;84656;1330;24211;-76
2022/09/13 03:59:59;;;;;;;10.50;7.70;;;;;;;5.89;93.32;100263.52;84582;1330;22625;-77
2022/09/13 04:02:13;;;;;;;9.90;7.80;;;;;;;5.86;93.15;100261.85;84664;1325;26635;-78
2022/09/13 04:04:26;;;;;;;12.40;7.50;;;;;;;5.82;92.96;100260.71;84643;1329;22703;-77
2022/09/13 04:06:38;;;;;;;9.40;6.90;;;;;;;5.79;93.00;100260.44;84635;1330;22668;-77
2022/09/13 04:08:51;;;;;;;9.90;7.60;;;;;;;5.75;92.89;100256.20;84658;1330;22584;-75
2022/09/13 04:11:01;;;;;;;10.90;6.90;;;;;;;5.69;92.66;100253.53;84626;1333;23908;-75
2022/09/13 04:13:10;;;;;;;7.50;6.40;;;;;;;5.61;92.34;100255.26;84622;1330;22555;-74
2022/09/13 04:15:24;;;;;;;7.40;6.70;;;;;;;5.53;92.41;100257.48;84647;1329;22604;-74
2022/09/13 04:17:33;;;;;;;7.50;5.60;;;;;;;5.49;92.33;100256.54;84638;1332;22728;-74
2022/09/13 04:19:45;;;;;;;6.70;6.10;;;;;;;5.44;92.33;100253.15;84645;1329;22621;-78
2022/09/13 04:21:55;;;;;;;8.30;5.70;;;;;;;5.39;92.27;100260.70;84622;1329;24141;-76
2022/09/13 04:24:04;;;;;;;8.90;6.20;;;;;;;5.35;92.24;100263.71;84653;1330;22609;-76
2022/09/13 04:26:14;;;;;;;8.10;6.00;;;;;;;5.31;92.05;100261.36;84648;1325;22824;-76
2022/09/13 04:28:26;;;;;;;7.40;6.40;;;;;;;5.29;92.31;100260.54;84620;1330;25442;-76
2022/09/13 04:30:39;;;;;;;6.00;5.50;;;;;;;5.26;92.68;100255.05;84542;1330;22604;-75
2022/09/13 04:32:50;;;;;;;7.20;6.30;;;;;;;5.23;91.98;100258.05;84617;1330;22628;-74
2022/09/13 04:35:00;;;;;;;8.60;6.00;;;;;;;5.20;92.30;100261.90;84577;1332;22609;-77
2022/09/13 04:37:10;;;;;;;5.90;5.40;;;;;;;5.21;92.49;100263.80;84663;1329;24325;-76
2022/09/13 04:39:20;;;;;;;5.40;4.90;;;;;;;5.21;92.60;100261.73;84637;1330;22886;-73
2022/09/13 04:41:31;;;;;;;6.30;5.70;;;;;;;5.21;92.63;100265.17;84612;1328;22734;-74
2022/09/13 04:43:49;;;;;;;6.90;5.40;;;;;;;5.24;92.89;100265.65;84652;1330;22585;-75
2022/09/13 04:46:01;;;;;;;6.10;5.50;;;;;;;5.27;93.20;100262.13;84672;1329;23937;-75
2022/09/13 04:48:12;;;;;;;5.20;4.70;;;;;;;5.31;92.98;100263.42;84642;1329;25160;-75
2022/09/13 04:50:21;;;;;;;5.50;5.00;;;;;;;5.34;93.26;100264.26;84681;1331;25450;-74
2022/09/13 04:52:30;;;;;;;5.40;4.80;;;;;;;5.39;93.56;100265.19;84644;1329;22579;-73
2022/09/13 04:54:42;;;;;;;4.90;4.40;;;;;;;5.46;93.48;100262.48;84623;1329;26761;-77
2022/09/13 04:56:51;;;;;;;5.30;4.90;;;;;;;5.55;93.96;100259.01;84628;1328;22880;-77
2022/09/13 04:59:00;;;;;;;5.40;4.90;;;;;;;5.62;93.92;100259.55;84641;1329;25925;-75
2022/09/13 05:01:13;;;;;;;6.20;5.30;;;;;;;5.69;94.12;100257.86;84637;1332;22738;-74
2022/09/13 05:03:25;;;;;;;5.70;5.00;;;;;;;5.76;94.28;100259.46;84643;1330;22698;-76
2022/09/13 05:05:36;;;;;;;5.90;5.30;;;;;;;5.85;94.40;100258.92;84568;1330;25308;-75
2022/09/13 05:07:49;;;;;;;5.80;5.20;;;;;;;5.98;94.97;100256.09;84574;1330;22635;-75
2022/09/13 05:09:58;;;;;;;8.00;5.60;;;;;;;6.11;95.29;100251.67;84669;1329;22782;-71
2022/09/13 05:12:10;;;;;;;6.80;5.90;;;;;;;6.26;95.37;100250.11;84603;1330;23962;-71
2022/09/13 05:14:21;;;;;;;6.40;5.80;;;;;;;6.55;95.03;100246.35;84661;1326;22607;-71
2022/09/13 05:16:31;;;;;;;6.70;6.00;;;;;;;7.06;95.96;100241.62;84652;1330;22681;-71
2022/09/13 05:18:40;;;;;;;6.20;5.60;;;;;;;8.05;98.75;100239.55;84650;1330;22616;-71
2022/09/13 05:20:49;;;;;;;5.60;5.00;;;;;;;8.76;97.51;100233.41;84629;1330;22590;-71
2022/09/13 05:23:00;;;;;;;5.60;5.10;;;;;;;9.05;94.81;100235.55;84650;1330;25250;-71
2022/09/13 05:25:17;;;;;;;6.10;5.50;;;;;;;9.26;93.21;100235.01;84700;1329;22849;-71
2022/09/13 05:27:26;;;;;;;6.60;5.90;;;;;;;9.24;91.14;100239.43;84222;1321;645436;-71
2022/09/13 05:29:35;;;;;;;13.00;6.50;;;;;;;9.21;90.45;100239.52;84701;1330;22648;-75
2022/09/13 05:31:45;;;;;;;13.20;7.50;;;;;;;9.17;90.03;100243.14;84644;1325;23910;-74
2022/09/13 05:34:03;;;;;;;10.20;6.20;;;;;;;9.04;89.65;100242.20;84655;1328;22823;-74
2022/09/13 05:36:15;;;;;;;7.10;6.40;;;;;;;8.93;89.56;100242.56;84663;1329;22594;-73
2022/09/13 05:38:29;;;;;;;7.00;6.30;;;;;;;8.85;89.62;100238.83;84635;1329;22863;-72
2022/09/13 05:40:41;;;;;;;6.90;6.00;;;;;;;8.82;90.06;100237.36;84687;1321;22654;-71
2022/09/13 05:42:50;;;;;;;6.90;5.60;;;;;;;8.85;90.57;100235.52;84697;1326;22595;-72
2022/09/13 05:45:05;;;;;;;8.40;6.40;;;;;;;8.91;90.89;100238.30;84602;1330;22753;-72
2022/09/13 05:47:20;;;;;;;6.30;5.80;;;;;;;9.01;91.30;100236.38;84722;1329;22870;-72
2022/09/13 05:49:29;;;;;;;6.70;6.10;;;;;;;9.23;91.70;100236.35;84711;1329;22841;-74
2022/09/13 05:51:47;;;;;;;8.60;6.20;;;;;;;9.96;93.76;100229.66;84636;1329;24271;-74
2022/09/13 05:53:58;;;;;;;6.40;5.80;;;;;;;11.38;97.84;100218.50;84664;1331;24619;-71
2022/09/13 05:56:11;;;;;;;6.00;5.50;;;;;;;12.90;99.99;100207.72;84548;1333;22602;-70
2022/09/13 05:58:25;;;;;;;6.40;5.80;;;;;;;14.41;97.54;100203.56;84570;1330;22580;-71
2022/09/13 06:00:40;;;;;;;5.10;4.60;;;;;;;15.81;90.17;100198.59;84587;1330;22663;-74
2022/09/13 06:02:55;;;;;;;5.10;4.70;;;;;;;16.89;81.94;100193.04;84651;1329;24239;-71
2022/09/13 06:05:12;;;;;;;7.60;5.10;;;;;;;17.92;76.43;100192.98;84570;1330;25291;-73
2022/09/13 06:07:21;;;;;;;6.30;5.00;;;;;;;18.57;71.84;100189.90;84646;1330;23797;-73
2022/09/13 06:09:36;;;;;;;5.60;5.10;;;;;;;18.84;68.23;100185.23;84668;1330;25464;-72
2022/09/13 06:11:47;;;;;;;6.00;5.40;;;;;;;19.14;65.19;100183.30;84622;1330;22712;-73
2022/09/13 06:14:01;;;;;;;6.60;6.00;;;;;;;19.27;64.02;100186.69;84686;1326;22583;-71
2022/09/13 06:16:12;;;;;;;6.80;4.90;;;;;;;19.23;63.81;100184.04;84687;1325;22692;-73
2022/09/13 06:18:26;;;;;;;7.40;4.70;;;;;;;18.79;63.22;100184.17;84635;1330;24198;-75
2022/09/13 06:20:35;;;;;;;7.80;6.10;;;;;;;18.20;63.96;100190.63;84669;1330;22672;-72
2022/09/13 06:22:46;;;;;;;11.20;7.20;;;;;;;17.71;64.49;100192.17;84593;1330;22621;-74
2022/09/13 06:24:59;;;;;;;7.30;6.60;;;;;;;17.26;65.18;100191.83;84677;1330;22777;-73
2022/09/13 06:27:13;;;;;;;7.30;6.50;;;;;;;16.82;66.48;100192.65;84674;1329;22644;-74
2022/09/13 06:29:22;;;;;;;7.00;5.90;;;;;;;16.49;67.21;100188.64;84665;1329;23957;-74
2022/09/13 06:31:37;;;;;;;7.60;6.90;;;;;;;16.23;68.14;100193.69;84681;1329;22579;-74
2022/09/13 06:33:57;;;;;;;7.90;7.00;;;;;;;15.96;68.60;100192.27;84604;1330;22652;-74
2022/09/13 06:36:09;;;;;;;7.70;6.70;;;;;;;15.72;69.37;100192.13;84674;1330;23859;-73
2022/09/13 06:38:19;;;;;;;8.80;7.80;;;;;;;15.56;69.99;100192.60;84692;1325;23870;-74
2022/09/13 06:40:31;;;;;;;7.70;6.90;;;;;;;15.42;70.63;100190.46;84645;1329;26634;-75
2022/09/13 06:42:46;;;;;;;10.50;7.60;;;;;;;15.31;71.21;100189.70;84654;1330;22946;-74
2022/09/13 06:44:56;;;;;;;8.60;7.80;;;;;;;15.23;71.88;100187.90;84569;1330;24374;-77
2022/09/13 06:47:05;;;;;;;9.50;7.70;;;;;;;15.20;72.69;100185.79;84639;1325;22593;-77
2022/09/13 06:49:14;;;;;;;11.10;8.30;;;;;;;15.14;72.80;100188.48;84655;1325;22574;-76
2022/09/13 06:51:28;;;;;;;8.60;7.80;;;;;;;15.12;73.54;100186.80;84623;1326;23958;-77
2022/09/13 06:53:40;;;;;;;11.20;8.70;;;;;;;15.17;74.12;100186.51;84570;1330;22747;-76
2022/09/13 06:56:05;;;;;;;8.80;7.90;;;;;;;15.20;74.43;100186.50;84654;1330;25308;-76
2022/09/13 06:58:17;;;;;;;9.40;8.20;;;;;;;15.21;74.80;100182.91;84620;1329;22703;-76
2022/09/13 07:00:32;;;;;;;13.90;9.00;;;;;;;15.23;75.02;100184.04;84630;1330;22745;-73
2022/09/13 07:02:42;;;;;;;10.40;8.20;;;;;;;15.25;74.93;100186.25;84639;1321;22861;-74
2022/09/13 07:04:52;;;;;;;9.60;8.30;;;;;;;15.29;75.06;100184.02;84683;1329;23951;-74
2022/09/13 07:07:00;;;;;;;10.50;9.10;;;;;;;15.40;75.28;100184.05;84523;1331;24252;-75
2022/09/13 07:09:14;;;;;;;10.70;8.30;;;;;;;15.52;75.20;100184.55;84627;1330;25434;-75
2022/09/13 07:11:29;;;;;;;11.70;9.20;;;;;;;15.64;75.10;100182.45;84598;1329;22607;-76
2022/09/13 07:13:38;;;;;;;10.20;8.80;;;;;;;15.69;75.00;100180.73;84653;1325;24237;-76
2022/09/13 07:15:46;;;;;;;;;;;;;;;15.73;74.85;100176.11;84602;1333;22709;-75
2022/09/13 07:17:56;;;;;;;13.40;9.80;;;;;;;15.70;74.86;100176.95;84678;1325;22919;-75
2022/09/13 07:20:08;;;;;;;12.70;10.00;;;;;;;15.71;74.70;100175.16;84671;1330;22609;-74
2022/09/13 07:22:18;;;;;;;14.80;9.80;;;;;;;15.70;74.73;100176.11;84596;1330;22842;-74
2022/09/13 07:24:29;;;;;;;14.80;9.30;;;;;;;15.64;74.13;100177.85;84657;1331;22757;-74
2022/09/13 07:26:44;;;;;;;11.70;9.80;;;;;;;15.57;74.81;100176.92;84625;1333;22640;-76
2022/09/13 07:28:56;;;;;;;12.50;8.70;;;;;;;15.67;76.14;100175.42;84650;1330;22648;-74
2022/09/13 07:31:11;;;;;;;19.80;8.80;;;;;;;15.87;76.01;100174.34;84623;1330;26570;-74
2022/09/13 07:33:20;;;;;;;11.00;9.50;;;;;;;16.13;76.05;100172.49;84610;1330;24319;-74
2022/09/13 07:35:29;;;;;;;10.40;8.70;;;;;;;16.40;75.24;100167.77;84622;1330;24238;-76
2022/09/13 07:37:38;;;;;;;18.60;9.70;;;;;;;16.62;73.87;100170.89;84621;1329;24094;-76
2022/09/13 07:39:47;;;;;;;13.30;7.80;;;;;;;16.74;74.08;100174.17;84537;1330;23998;-74
2022/09/13 07:41:54;;;;;;;;;;;;;;;16.90;73.33;100172.72;84598;1329;22757;-74
2022/09/13 07:44:07;;;;;;;10.30;8.80;;;;;;;17.19;74.16;100171.85;84605;1332;24277;-73
2022/09/13 07:46:18;;;;;;;11.60;8.40;;;;;;;17.75;77.72;100168.96;84654;1329;22625;-73
2022/09/13 07:48:30;;;;;;;8.40;7.30;;;;;;;18.73;76.15;100162.32;84652;1329;23021;-73
2022/09/13 07:50:39;;;;;;;12.50;5.70;;;;;;;19.67;70.36;100158.11;84599;1330;24156;-73
2022/09/13 07:52:48;;;;;;;5.70;5.10;;;;;;;20.60;66.43;100156.60;84612;1329;22708;-73
2022/09/13 07:55:00;;;;;;;6.20;5.20;;;;;;;21.52;64.87;100158.17;84560;1331;25359;-76
2022/09/13 07:57:12;;;;;;;5.30;4.80;;;;;;;22.46;60.25;100157.67;84623;1330;26463;-76
2022/09/13 07:59:23;;;;;;;6.00;4.60;;;;;;;23.50;56.56;100153.66;84640;1330;25434;-74
2022/09/13 08:01:38;;;;;;;4.80;4.30;;;;;;;24.48;54.77;100151.99;84643;1331;23818;-75
2022/09/13 08:03:50;;;;;;;7.30;4.30;;;;;;;25.30;51.90;100151.45;84635;1330;23947;-74
2022/09/13 08:06:00;;;;;;;4.50;3.80;;;;;;;25.69;49.14;100149.38;84611;1329;22590;-72
2022/09/13 08:08:09;;;;;;;5.80;3.50;;;;;;;26.02;48.44;100151.98;84649;1330;22707;-73
2022/09/13 08:10:23;;;;;;;4.20;3.30;;;;;;;26.45;47.27;100147.95;84645;1333;22590;-74
2022/09/13 08:12:38;;;;;;;4.30;2.70;;;;;;;26.87;44.34;100142.96;84627;1329;25276;-74
2022/09/13 08:14:50;;;;;;;4.40;3.30;;;;;;;27.10;42.29;100142.64;84691;1330;22590;-74
2022/09/13 08:17:00;;;;;;;3.00;2.70;;;;;;;27.24;42.72;100142.42;84607;1329;22643;-74
2022/09/13 08:19:12;;;;;;;4.30;2.70;;;;;;;27.48;41.79;100139.77;84610;1330;22684;-74
2022/09/13 08:21:26;;;;;;;3.50;2.40;;;;;;;27.64;41.53;100140.80;84618;1329;22655;-74
2022/09/13 08:23:35;;;;;;;3.10;2.50;;;;;;;27.84;40.53;100143.47;84668;1330;22738;-73
2022/09/13 08:25:44;;;;;;;5.90;2.60;;;;;;;27.93;40.01;100138.95;84620;1330;22769;-73
2022/09/13 08:27:55;;;;;;;3.00;2.40;;;;;;;27.91;39.09;100135.93;84598;1330;22575;-73
2022/09/13 08:30:10;;;;;;;2.60;1.70;;;;;;;27.90;38.68;100135.40;84647;1327;23009;-75
2022/09/13 08:32:22;;;;;;;3.40;1.90;;;;;;;27.94;38.62;100131.45;84612;1330;22613;-74
2022/09/13 08:34:31;;;;;;;2.90;2.60;;;;;;;28.01;38.79;100130.86;84631;1329;25353;-73
2022/09/13 08:36:45;;;;;;;4.10;2.70;;;;;;;28.02;38.14;100131.09;84629;1331;26587;-72
2022/09/13 08:38:57;;;;;;;3.50;2.10;;;;;;;27.94;38.26;100128.48;84678;1329;22654;-74
2022/09/13 08:41:24;;;;;;;2.80;2.00;;;;;;;27.92;38.01;100125.08;84619;1331;24273;-74
2022/09/13 08:43:43;;;;;;;3.60;1.20;;;;;;;28.02;38.25;100130.14;84630;1330;24233;-74
2022/09/13 08:46:05;;;;;;;5.50;1.80;;;;;;;28.18;36.50;100127.67;84593;1330;22781;-74
2022/09/13 08:48:21;;;;;;;3.40;1.90;;;;;;;28.09;36.31;100126.89;84622;1329;25584;-74
2022/09/13 08:50:33;;;;;;;2.70;1.80;;;;;;;28.03;36.57;100123.82;84585;1329;22600;-73
2022/09/13 08:53:00;;;;;;;6.80;2.10;;;;;;;28.06;36.76;100127.23;84578;1330;26719;-74
2022/09/13 08:55:24;;;;;;;3.80;1.50;;;;;;;28.28;36.90;100123.98;84626;1325;23796;-74
2022/09/13 08:57:38;;;;;;;6.90;2.70;;;;;;;28.44;36.37;100111.06;84642;1330;26479;-75
2022/09/13 08:59:59;;;;;;;4.00;1.30;;;;;;;28.32;35.75;100112.05;84647;1329;25274;-73
2022/09/13 09:02:27;;;;;;;1.90;1.40;;;;;;;27.96;35.77;100113.34;84619;1328;22593;-73
2022/09/13 09:04:45;;;;;;;2.80;1.30;;;;;;;27.48;35.92;100116.70;84616;1327;22677;-74
2022/09/13 09:06:56;;;;;;;5.70;1.30;;;;;;;27.08;35.96;100113.37;84617;1321;22662;-74
2022/09/13 09:09:12;;;;;;;2.60;1.20;;;;;;;26.60;35.50;100112.60;84593;1330;22613;-74
2022/09/13 09:11:31;;;;;;;11.50;1.80;;;;;;;26.14;37.05;100110.51;84634;1329;22610;-74
2022/09/13 09:13:50;;;;;;;1.30;1.00;;;;;;;25.89;37.89;100111.22;84552;1326;22859;-74
2022/09/13 09:16:05;;;;;;;4.00;1.40;;;;;;;25.68;38.30;100110.52;84616;1330;25959;-74
2022/09/13 09:18:18;;;;;;;2.20;1.40;;;;;;;25.53;38.84;100107.98;84624;1327;22708;-74
2022/09/13 09:20:36;;;;;;;5.10;1.40;;;;;;;25.37;39.32;100109.55;84616;1327;22764;-74
2022/09/13 09:22:48;;;;;;;3.20;1.30;;;;;;;25.26;39.45;100109.63;84608;1330;22597;-72
2022/09/13 09:24:58;;;;;;;3.00;1.60;;;;;;;25.38;40.13;100103.83;84646;1329;25317;-76
2022/09/13 09:27:13;;;;;;;7.50;1.80;;;;;;;25.53;39.30;100098.60;84606;1329;25444;-76
2022/09/13 09:29:31;;;;;;;48.00;8.80;;;;;;;25.79;39.17;100093.35;84657;1329;23943;-75
2022/09/13 09:31:48;;;;;;;11.60;2.70;;;;;;;25.97;38.85;100094.98;84591;1324;22709;-75
2022/09/13 09:34:14;;;;;;;3.70;2.00;;;;;;;25.82;38.00;100087.86;84641;1322;23966;-75
2022/09/13 09:36:28;;;;;;;2.90;1.30;;;;;;;25.57;39.33;100087.20;84623;1329;22854;-74
2022/09/13 09:38:45;;;;;;;7.40;2.10;;;;;;;25.37;39.27;100088.27;84636;1331;22686;-74
2022/09/13 09:40:54;;;;;;;11.60;3.30;;;;;;;25.06;39.01;100088.21;84600;1329;25286;-73
2022/09/13 09:43:09;;;;;;;3.10;1.80;;;;;;;24.80;39.35;100087.70;84596;1330;22581;-73
2022/09/13 09:45:28;;;;;;;2.70;1.30;;;;;;;24.59;40.18;100077.89;84572;1330;22700;-74
2022/09/13 09:47:45;;;;;;;3.40;1.50;;;;;;;24.55;41.06;100079.15;84568;1330;24233;-74
2022/09/13 09:50:11;;;;;;;7.00;1.70;;;;;;;24.49;40.48;100076.09;84683;1330;22667;-74
2022/09/13 09:52:28;;;;;;;2.10;1.60;;;;;;;24.41;41.05;100065.27;84622;1329;23958;-74
2022/09/13 09:54:38;;;;;;;3.50;1.70;;;;;;;24.37;41.28;100066.03;84561;1330;22593;-76
2022/09/13 09:56:55;;;;;;;2.00;1.40;;;;;;;24.38;41.09;100061.87;84582;1329;25466;-75
2022/09/13 09:59:04;;;;;;;2.10;1.40;;;;;;;24.33;41.78;100063.00;84636;1330;24000;-77
2022/09/13 10:01:19;;;;;;;;;;;;;;;24.26;42.01;100062.14;84622;1329;22616;-75
2022/09/13 10:03:30;;;;;;;3.90;2.00;;;;;;;24.12;42.18;100059.63;84627;1329;23442;-74
2022/09/13 10:05:39;;;;;;;4.70;1.70;;;;;;;24.02;42.39;100057.30;84623;1333;22642;-73
2022/09/13 10:07:59;;;;;;;2.50;1.40;;;;;;;23.87;41.98;100056.05;84633;1330;22629;-74
2022/09/13 10:10:20;;;;;;;6.50;1.70;;;;;;;23.64;41.58;100051.52;84645;1330;22637;-74
2022/09/13 10:12:35;;;;;;;3.60;1.50;;;;;;;23.39;41.61;100047.90;84668;1327;22687;-72
2022/09/13 10:14:46;;;;;;;2.40;1.60;;;;;;;23.16;42.47;100046.40;84606;1329;22683;-77
2022/09/13 10:17:04;;;;;;;2.10;1.50;;;;;;;23.00;43.24;100048.09;84666;1329;24296;-74
2022/09/13 10:19:33;;;;;;;4.80;1.90;;;;;;;22.88;43.50;100046.58;84607;1331;22669;-75
2022/09/13 10:21:49;;;;;;;6.10;1.40;;;;;;;22.77;44.03;100046.20;84629;1329;24271;-75
2022/09/13 10:24:20;;;;;;;2.30;1.30;;;;;;;22.72;44.77;100053.40;84651;1329;22603;-74